createdAt,value
2017-09-13T00:00:24.612Z,998.86
2017-09-13T00:01:18.638Z,998.82
2017-09-13T00:02:18.559Z,998.83
2017-09-13T00:03:12.794Z,998.78
2017-09-13T00:04:06.813Z,998.76
2017-09-13T00:04:55.775Z,998.76
2017-09-13T00:05:43.833Z,998.64
2017-09-13T00:06:38.890Z,998.59
2017-09-13T00:07:33.027Z,998.58
2017-09-13T00:08:32.918Z,998.56
2017-09-13T00:09:27.059Z,998.53
2017-09-13T00:10:21.373Z,998.51
2017-09-13T00:11:15.087Z,998.43
2017-09-13T00:12:15.468Z,998.45
2017-09-13T00:13:22.051Z,998.47
2017-09-13T00:14:10.130Z,998.44
2017-09-13T00:15:04.226Z,998.39
2017-09-13T00:15:59.220Z,998.38
2017-09-13T00:16:53.208Z,998.36
2017-09-13T00:17:47.302Z,998.34
2017-09-13T00:18:47.768Z,998.33
2017-09-13T00:19:41.700Z,998.34
2017-09-13T00:20:35.417Z,998.33
2017-09-13T00:21:29.496Z,998.32
2017-09-13T00:22:24.778Z,998.29
2017-09-13T00:23:18.574Z,998.31
2017-09-13T00:24:12.632Z,998.32
2017-09-13T00:25:07.562Z,998.23
2017-09-13T00:26:01.554Z,998.24
2017-09-13T00:27:01.822Z,998.23
2017-09-13T00:27:56.660Z,998.14
2017-09-13T00:28:45.698Z,998.11
2017-09-13T00:29:45.658Z,998.06
2017-09-13T00:30:40.727Z,998.01
2017-09-13T00:31:40.801Z,997.96
2017-09-13T00:32:36.171Z,997.92
2017-09-13T00:33:30.865Z,997.87
2017-09-13T00:34:30.898Z,997.78
2017-09-13T00:35:24.950Z,997.72
2017-09-13T00:36:12.959Z,997.74
2017-09-13T00:37:07.923Z,997.80
2017-09-13T00:38:03.090Z,997.81
2017-09-13T00:38:58.017Z,997.81
2017-09-13T00:39:58.091Z,997.77
2017-09-13T00:40:47.174Z,997.75
2017-09-13T00:41:48.186Z,997.77
2017-09-13T00:42:48.145Z,997.73
2017-09-13T00:43:48.170Z,997.61
2017-09-13T00:44:37.370Z,997.62
2017-09-13T00:45:32.375Z,997.54
2017-09-13T00:46:32.425Z,997.53
2017-09-13T00:47:26.451Z,997.53
2017-09-13T00:48:27.537Z,997.50
2017-09-13T00:49:21.461Z,997.52
2017-09-13T00:50:15.479Z,997.28
2017-09-13T00:51:10.540Z,997.39
2017-09-13T00:52:04.553Z,997.35
2017-09-13T00:52:58.542Z,997.36
2017-09-13T00:53:52.556Z,997.31
2017-09-13T00:54:47.686Z,997.23
2017-09-13T00:55:42.666Z,997.22
2017-09-13T00:56:37.716Z,997.19
2017-09-13T00:57:32.776Z,997.17
2017-09-13T00:58:27.716Z,997.18
2017-09-13T00:59:27.887Z,997.13
2017-09-13T01:00:21.864Z,997.11
2017-09-13T01:01:15.972Z,997.11
2017-09-13T01:02:10.273Z,997.05
2017-09-13T01:03:05.006Z,997.04
2017-09-13T01:03:53.994Z,997.05
2017-09-13T01:04:49.068Z,996.97
2017-09-13T01:05:38.003Z,996.98
2017-09-13T01:06:38.209Z,996.97
2017-09-13T01:07:38.281Z,996.90
2017-09-13T01:08:38.171Z,996.83
2017-09-13T01:09:27.254Z,996.83
2017-09-13T01:10:22.277Z,996.79
2017-09-13T01:11:17.276Z,996.76
2017-09-13T01:12:11.397Z,996.71
2017-09-13T01:13:00.347Z,996.67
2017-09-13T01:13:54.447Z,996.67
2017-09-13T01:14:54.447Z,996.61
2017-09-13T01:15:49.510Z,996.50
2017-09-13T01:16:50.895Z,996.44
2017-09-13T01:17:45.158Z,996.39
2017-09-13T01:18:38.510Z,996.33
2017-09-13T01:19:27.533Z,996.36
2017-09-13T01:20:21.645Z,996.30
2017-09-13T01:21:21.931Z,996.35
2017-09-13T01:22:15.797Z,996.30
2017-09-13T01:23:10.727Z,996.35
2017-09-13T01:24:06.322Z,996.38
2017-09-13T01:24:54.892Z,996.40
2017-09-13T01:25:54.804Z,996.48
2017-09-13T01:26:55.056Z,996.53
2017-09-13T01:27:50.344Z,996.53
2017-09-13T01:28:44.910Z,996.54
2017-09-13T01:29:45.001Z,996.51
2017-09-13T01:30:45.017Z,996.52
2017-09-13T01:31:39.070Z,996.48
2017-09-13T01:32:33.165Z,996.51
2017-09-13T01:33:28.196Z,996.49
2017-09-13T01:34:22.210Z,996.49
2017-09-13T01:35:17.181Z,996.45
2017-09-13T01:36:18.368Z,996.37
2017-09-13T01:37:06.258Z,996.35
2017-09-13T01:38:06.605Z,996.41
2017-09-13T01:39:01.510Z,996.41
2017-09-13T01:39:49.419Z,996.48
2017-09-13T01:40:44.382Z,996.45
2017-09-13T01:41:38.420Z,996.50
2017-09-13T01:42:39.476Z,996.47
2017-09-13T01:43:34.493Z,996.48
2017-09-13T01:44:29.868Z,996.46
2017-09-13T01:45:24.634Z,996.46
2017-09-13T01:46:18.590Z,996.40
2017-09-13T01:47:13.674Z,996.34
2017-09-13T01:48:07.722Z,996.29
2017-09-13T01:49:02.777Z,996.29
2017-09-13T01:50:09.069Z,996.23
2017-09-13T01:51:14.756Z,996.19
2017-09-13T01:52:09.805Z,996.16
2017-09-13T01:53:09.847Z,996.10
2017-09-13T01:53:57.875Z,996.00
2017-09-13T01:54:53.118Z,996.00
2017-09-13T01:55:47.942Z,995.92
2017-09-13T01:56:43.016Z,995.88
2017-09-13T01:57:32.305Z,995.85
2017-09-13T01:58:20.202Z,995.87
2017-09-13T01:59:20.073Z,995.82
2017-09-13T02:00:14.226Z,995.76
2017-09-13T02:01:14.159Z,995.70
2017-09-13T02:02:09.644Z,995.74
2017-09-13T02:03:04.240Z,995.70
2017-09-13T02:04:04.256Z,995.59
2017-09-13T02:04:59.353Z,995.50
2017-09-13T02:06:00.453Z,995.47
2017-09-13T02:06:55.327Z,995.34
2017-09-13T02:07:44.917Z,995.31
2017-09-13T02:08:39.564Z,995.25
2017-09-13T02:09:28.444Z,995.28
2017-09-13T02:10:23.476Z,995.20
2017-09-13T02:11:24.476Z,995.17
2017-09-13T02:12:12.736Z,995.15
2017-09-13T02:13:12.990Z,995.11
2017-09-13T02:14:07.743Z,995.09
2017-09-13T02:15:01.654Z,995.11
2017-09-13T02:16:01.881Z,995.11
2017-09-13T02:16:49.714Z,995.12
2017-09-13T02:17:39.136Z,995.10
2017-09-13T02:18:33.068Z,995.02
2017-09-13T02:19:27.835Z,994.95
2017-09-13T02:20:21.935Z,994.87
2017-09-13T02:21:16.130Z,994.90
2017-09-13T02:22:05.242Z,994.86
2017-09-13T02:23:00.297Z,994.84
2017-09-13T02:23:49.027Z,994.84
2017-09-13T02:24:43.031Z,994.82
2017-09-13T02:25:43.322Z,994.78
2017-09-13T02:26:38.139Z,994.73
2017-09-13T02:27:38.161Z,994.78
2017-09-13T02:28:27.411Z,994.76
2017-09-13T02:29:15.252Z,994.75
2017-09-13T02:30:09.334Z,994.69
2017-09-13T02:30:57.355Z,994.62
2017-09-13T02:31:51.418Z,994.57
2017-09-13T02:32:46.974Z,994.49
2017-09-13T02:33:46.459Z,994.43
2017-09-13T02:34:41.076Z,994.41
2017-09-13T02:35:29.528Z,994.41
2017-09-13T02:36:17.496Z,994.40
2017-09-13T02:37:06.670Z,994.40
2017-09-13T02:37:54.672Z,994.31
2017-09-13T02:38:43.704Z,994.29
2017-09-13T02:39:44.192Z,994.18
2017-09-13T02:40:32.929Z,994.21
2017-09-13T02:41:32.801Z,994.09
2017-09-13T02:42:27.378Z,994.06
2017-09-13T02:43:21.820Z,994.05
2017-09-13T02:44:22.893Z,993.92
2017-09-13T02:45:17.107Z,993.88
2017-09-13T02:46:05.942Z,993.86
2017-09-13T02:47:06.004Z,993.78
2017-09-13T02:48:00.099Z,993.76
2017-09-13T02:49:00.106Z,993.78
2017-09-13T02:49:49.215Z,993.76
2017-09-13T02:50:43.268Z,993.73
2017-09-13T02:51:38.273Z,993.72
2017-09-13T02:52:27.639Z,993.72
2017-09-13T02:53:15.216Z,993.69
2017-09-13T02:54:15.351Z,993.66
2017-09-13T02:55:10.291Z,993.63
2017-09-13T02:56:10.486Z,993.60
2017-09-13T02:56:59.732Z,993.52
2017-09-13T02:57:53.366Z,993.53
2017-09-13T02:58:59.438Z,993.52
2017-09-13T02:59:54.436Z,993.41
2017-09-13T03:00:54.672Z,993.38
2017-09-13T03:01:49.867Z,993.35
2017-09-13T03:02:49.868Z,993.36
2017-09-13T03:03:44.055Z,993.42
2017-09-13T03:04:31.896Z,993.39
2017-09-13T03:05:31.669Z,993.34
2017-09-13T03:06:31.717Z,993.21
2017-09-13T03:07:21.234Z,993.21
2017-09-13T03:08:15.793Z,993.21
2017-09-13T03:09:10.854Z,993.24
2017-09-13T03:10:10.876Z,993.20
2017-09-13T03:11:04.943Z,993.12
2017-09-13T03:12:00.257Z,993.08
2017-09-13T03:12:53.976Z,993.09
2017-09-13T03:13:48.057Z,993.04
2017-09-13T03:14:43.154Z,992.97
2017-09-13T03:15:38.083Z,992.90
2017-09-13T03:16:27.088Z,992.91
2017-09-13T03:17:27.729Z,992.88
2017-09-13T03:18:21.275Z,992.88
2017-09-13T03:19:21.182Z,992.81
2017-09-13T03:20:15.584Z,992.66
2017-09-13T03:21:09.255Z,992.69
2017-09-13T03:22:03.448Z,992.70
2017-09-13T03:23:03.553Z,992.62
2017-09-13T03:24:03.436Z,992.60
2017-09-13T03:24:58.375Z,992.53
2017-09-13T03:25:52.474Z,992.49
2017-09-13T03:26:47.512Z,992.50
2017-09-13T03:27:42.997Z,992.44
2017-09-13T03:28:42.765Z,992.31
2017-09-13T03:29:42.773Z,992.30
2017-09-13T03:30:37.681Z,992.28
2017-09-13T03:31:32.657Z,992.28
2017-09-13T03:32:33.034Z,992.24
2017-09-13T03:33:26.654Z,992.26
2017-09-13T03:34:32.758Z,992.17
2017-09-13T03:35:21.976Z,992.23
2017-09-13T03:36:21.909Z,992.18
2017-09-13T03:37:15.830Z,992.14
2017-09-13T03:38:21.899Z,992.11
2017-09-13T03:39:21.914Z,992.08
2017-09-13T03:40:16.850Z,992.02
2017-09-13T03:41:10.974Z,992.02
2017-09-13T03:42:05.020Z,991.99
2017-09-13T03:43:00.010Z,991.97
2017-09-13T03:43:54.177Z,991.89
2017-09-13T03:44:49.080Z,991.88
2017-09-13T03:45:49.179Z,991.83
2017-09-13T03:46:43.183Z,991.76
2017-09-13T03:47:32.616Z,991.76
2017-09-13T03:48:21.258Z,991.71
2017-09-13T03:49:10.525Z,991.73
2017-09-13T03:50:11.369Z,991.69
2017-09-13T03:51:12.351Z,991.65
2017-09-13T03:52:06.771Z,991.61
2017-09-13T03:52:55.437Z,991.60
2017-09-13T03:53:50.422Z,991.56
2017-09-13T03:54:50.578Z,991.54
2017-09-13T03:55:50.543Z,991.56
2017-09-13T03:56:44.498Z,991.49
2017-09-13T03:57:44.995Z,991.45
2017-09-13T03:58:38.609Z,991.45
2017-09-13T03:59:32.768Z,991.43
2017-09-13T04:00:26.762Z,991.37
2017-09-13T04:01:21.813Z,991.31
2017-09-13T04:02:10.189Z,991.34
2017-09-13T04:03:03.848Z,991.15
2017-09-13T04:04:03.807Z,991.23
2017-09-13T04:04:58.848Z,991.27
2017-09-13T04:05:59.035Z,991.28
2017-09-13T04:06:52.972Z,991.27
2017-09-13T04:07:47.422Z,991.23
2017-09-13T04:08:41.220Z,991.14
2017-09-13T04:09:41.215Z,991.19
2017-09-13T04:10:35.188Z,991.04
2017-09-13T04:11:35.098Z,991.12
2017-09-13T04:12:29.697Z,991.06
2017-09-13T04:13:35.121Z,991.01
2017-09-13T04:14:24.318Z,991.01
2017-09-13T04:15:13.245Z,991.03
2017-09-13T04:16:19.356Z,991.00
2017-09-13T04:17:14.829Z,990.93
2017-09-13T04:18:14.395Z,990.85
2017-09-13T04:19:08.650Z,990.89
2017-09-13T04:20:08.489Z,990.81
2017-09-13T04:21:03.509Z,990.79
2017-09-13T04:21:57.577Z,990.79
2017-09-13T04:22:51.904Z,990.67
2017-09-13T04:23:46.551Z,990.75
2017-09-13T04:24:46.557Z,990.76
2017-09-13T04:25:42.225Z,990.77
2017-09-13T04:26:41.777Z,990.78
2017-09-13T04:27:35.800Z,990.85
2017-09-13T04:28:35.720Z,990.72
2017-09-13T04:29:29.769Z,990.70
2017-09-13T04:30:30.743Z,990.69
2017-09-13T04:31:26.045Z,990.51
2017-09-13T04:32:19.993Z,990.60
2017-09-13T04:33:13.832Z,990.57
2017-09-13T04:34:07.899Z,990.50
2017-09-13T04:35:08.091Z,990.51
2017-09-13T04:36:08.018Z,990.46
2017-09-13T04:37:02.543Z,990.30
2017-09-13T04:37:57.380Z,990.41
2017-09-13T04:38:57.115Z,990.30
2017-09-13T04:39:52.149Z,990.38
2017-09-13T04:40:46.268Z,990.29
2017-09-13T04:41:40.198Z,990.26
2017-09-13T04:42:41.358Z,990.24
2017-09-13T04:43:42.181Z,990.26
2017-09-13T04:44:31.675Z,990.12
2017-09-13T04:45:19.358Z,990.19
2017-09-13T04:46:19.366Z,990.21
2017-09-13T04:47:14.548Z,990.18
2017-09-13T04:48:09.450Z,990.09
2017-09-13T04:49:09.738Z,990.09
2017-09-13T04:50:04.458Z,990.10
2017-09-13T04:50:59.576Z,990.04
2017-09-13T04:51:54.678Z,990.03
2017-09-13T04:52:55.752Z,989.99
2017-09-13T04:53:50.095Z,989.96
2017-09-13T04:54:44.629Z,989.97
2017-09-13T04:55:39.254Z,990.06
2017-09-13T04:56:32.869Z,989.98
2017-09-13T04:57:32.841Z,990.00
2017-09-13T04:58:26.785Z,989.87
2017-09-13T04:59:20.820Z,989.94
2017-09-13T05:00:14.903Z,989.93
2017-09-13T05:01:09.977Z,989.96
2017-09-13T05:02:04.418Z,989.89
2017-09-13T05:02:52.982Z,989.86
2017-09-13T05:03:47.998Z,989.91
2017-09-13T05:04:42.172Z,989.82
2017-09-13T05:05:37.125Z,989.89
2017-09-13T05:06:38.066Z,989.82
2017-09-13T05:07:38.539Z,989.96
2017-09-13T05:08:32.229Z,989.87
2017-09-13T05:09:32.587Z,989.96
2017-09-13T05:10:21.713Z,989.92
2017-09-13T05:11:21.657Z,989.92
2017-09-13T05:12:15.390Z,989.92
2017-09-13T05:13:15.321Z,989.90
2017-09-13T05:14:15.371Z,989.91
2017-09-13T05:15:15.416Z,989.96
2017-09-13T05:16:09.490Z,989.80
2017-09-13T05:17:09.417Z,989.85
2017-09-13T05:18:04.550Z,989.89
2017-09-13T05:18:59.613Z,989.85
2017-09-13T05:19:53.674Z,989.80
2017-09-13T05:20:48.772Z,989.75
2017-09-13T05:21:48.769Z,989.75
2017-09-13T05:22:42.711Z,989.78
2017-09-13T05:23:38.212Z,989.80
2017-09-13T05:24:26.750Z,989.75
2017-09-13T05:25:15.944Z,989.70
2017-09-13T05:26:04.918Z,989.72
2017-09-13T05:26:58.900Z,989.68
2017-09-13T05:27:58.900Z,989.74
2017-09-13T05:28:53.025Z,989.62
2017-09-13T05:29:52.962Z,989.66
2017-09-13T05:30:47.998Z,989.71
2017-09-13T05:31:43.146Z,989.71
2017-09-13T05:32:38.192Z,989.62
2017-09-13T05:33:39.382Z,989.62
2017-09-13T05:34:33.296Z,989.70
2017-09-13T05:35:27.233Z,989.63
2017-09-13T05:36:22.255Z,989.70
2017-09-13T05:37:16.545Z,989.69
2017-09-13T05:38:10.371Z,989.60
2017-09-13T05:39:04.378Z,989.65
2017-09-13T05:39:59.895Z,989.60
2017-09-13T05:40:53.469Z,989.63
2017-09-13T05:41:48.462Z,989.65
2017-09-13T05:42:37.556Z,989.53
2017-09-13T05:43:31.510Z,989.59
2017-09-13T05:44:25.626Z,989.57
2017-09-13T05:45:20.672Z,989.63
2017-09-13T05:46:10.131Z,989.63
2017-09-13T05:47:05.220Z,989.62
2017-09-13T05:47:58.875Z,989.61
2017-09-13T05:48:53.767Z,989.57
2017-09-13T05:49:41.846Z,989.57
2017-09-13T05:50:36.050Z,989.43
2017-09-13T05:51:30.952Z,989.48
2017-09-13T05:52:19.992Z,989.34
2017-09-13T05:53:14.995Z,989.50
2017-09-13T05:54:04.479Z,989.43
2017-09-13T05:54:52.370Z,989.48
2017-09-13T05:55:53.139Z,989.39
2017-09-13T05:56:48.058Z,989.36
2017-09-13T05:57:42.217Z,989.30
2017-09-13T05:58:42.526Z,989.23
2017-09-13T05:59:37.994Z,989.24
2017-09-13T06:00:31.276Z,989.30
2017-09-13T06:01:25.356Z,989.19
2017-09-13T06:02:20.375Z,989.26
2017-09-13T06:03:15.407Z,989.21
2017-09-13T06:04:09.483Z,989.22
2017-09-13T06:05:03.484Z,989.23
2017-09-13T06:05:57.450Z,989.19
2017-09-13T06:06:52.518Z,989.12
2017-09-13T06:07:47.605Z,989.11
2017-09-13T06:08:47.621Z,989.04
2017-09-13T06:09:41.659Z,989.04
2017-09-13T06:10:30.718Z,989.20
2017-09-13T06:11:30.895Z,989.12
2017-09-13T06:12:25.781Z,989.20
2017-09-13T06:13:19.889Z,989.18
2017-09-13T06:14:15.087Z,989.15
2017-09-13T06:15:14.866Z,989.20
2017-09-13T06:16:09.912Z,989.21
2017-09-13T06:17:05.348Z,989.26
2017-09-13T06:18:06.030Z,989.17
2017-09-13T06:19:00.097Z,989.16
2017-09-13T06:19:54.054Z,989.10
2017-09-13T06:20:54.073Z,989.13
2017-09-13T06:21:49.128Z,989.11
2017-09-13T06:22:43.187Z,989.15
2017-09-13T06:23:37.720Z,989.15
2017-09-13T06:24:32.268Z,989.13
2017-09-13T06:25:26.465Z,989.04
2017-09-13T06:26:21.566Z,989.00
2017-09-13T06:27:15.485Z,988.92
2017-09-13T06:28:09.435Z,988.87
2017-09-13T06:29:04.491Z,988.84
2017-09-13T06:29:58.446Z,988.85
2017-09-13T06:30:58.590Z,988.96
2017-09-13T06:31:52.461Z,988.83
2017-09-13T06:32:52.655Z,988.75
2017-09-13T06:33:47.562Z,988.66
2017-09-13T06:34:41.642Z,988.87
2017-09-13T06:35:41.781Z,988.93
2017-09-13T06:36:36.697Z,988.97
2017-09-13T06:37:31.671Z,988.70
2017-09-13T06:38:25.801Z,988.86
2017-09-13T06:39:19.820Z,988.80
2017-09-13T06:40:13.938Z,988.82
2017-09-13T06:41:14.971Z,988.82
2017-09-13T06:42:10.351Z,988.83
2017-09-13T06:43:04.001Z,988.90
2017-09-13T06:44:01.303Z,988.90
2017-09-13T06:44:59.111Z,988.88
2017-09-13T06:45:53.058Z,988.98
2017-09-13T06:46:53.049Z,989.14
2017-09-13T06:47:47.599Z,989.30
2017-09-13T06:48:47.179Z,989.10
2017-09-13T06:49:42.417Z,988.92
2017-09-13T06:50:36.285Z,988.82
2017-09-13T06:51:31.255Z,988.93
2017-09-13T06:52:31.593Z,988.85
2017-09-13T06:53:26.356Z,988.87
2017-09-13T06:54:26.327Z,988.89
2017-09-13T06:55:14.370Z,989.01
2017-09-13T06:56:08.981Z,989.11
2017-09-13T06:57:03.495Z,988.81
2017-09-13T06:57:58.578Z,988.95
2017-09-13T06:58:47.536Z,988.88
2017-09-13T06:59:41.673Z,988.80
2017-09-13T07:00:36.796Z,988.86
2017-09-13T07:01:30.746Z,988.59
2017-09-13T07:02:25.744Z,988.73
2017-09-13T07:03:19.795Z,988.85
2017-09-13T07:04:19.779Z,988.74
2017-09-13T07:05:13.963Z,988.67
2017-09-13T07:06:09.036Z,988.69
2017-09-13T07:07:03.990Z,988.53
2017-09-13T07:07:58.961Z,988.61
2017-09-13T07:08:47.055Z,988.55
2017-09-13T07:09:47.067Z,988.43
2017-09-13T07:10:42.216Z,988.27
2017-09-13T07:11:42.391Z,988.40
2017-09-13T07:12:30.119Z,988.33
2017-09-13T07:13:25.390Z,988.34
2017-09-13T07:14:19.301Z,988.52
2017-09-13T07:15:13.384Z,988.22
2017-09-13T07:16:08.380Z,988.29
2017-09-13T07:17:08.958Z,988.16
2017-09-13T07:17:57.491Z,988.28
2017-09-13T07:18:51.406Z,988.31
2017-09-13T07:19:51.834Z,988.31
2017-09-13T07:20:46.596Z,988.27
2017-09-13T07:21:46.527Z,988.51
2017-09-13T07:22:41.164Z,988.26
2017-09-13T07:23:35.234Z,988.42
2017-09-13T07:24:22.723Z,988.41
2017-09-13T07:25:11.817Z,988.41
2017-09-13T07:26:05.800Z,988.27
2017-09-13T07:26:59.943Z,988.27
2017-09-13T07:27:55.391Z,988.17
2017-09-13T07:28:49.375Z,988.18
2017-09-13T07:29:49.204Z,988.27
2017-09-13T07:30:49.045Z,988.12
2017-09-13T07:31:49.080Z,988.25
2017-09-13T07:32:43.240Z,988.22
2017-09-13T07:33:43.757Z,988.26
2017-09-13T07:34:37.360Z,988.30
2017-09-13T07:35:32.593Z,988.27
2017-09-13T07:36:21.375Z,988.32
2017-09-13T07:37:15.717Z,988.36
2017-09-13T07:38:04.450Z,988.24
2017-09-13T07:39:04.720Z,988.08
2017-09-13T07:39:58.586Z,988.12
2017-09-13T07:40:58.501Z,988.22
2017-09-13T07:41:53.591Z,988.26
2017-09-13T07:42:47.641Z,988.21
2017-09-13T07:43:47.647Z,988.34
2017-09-13T07:44:42.770Z,988.30
2017-09-13T07:45:37.824Z,988.18
2017-09-13T07:46:32.147Z,988.40
2017-09-13T07:47:31.948Z,988.31
2017-09-13T07:48:25.995Z,988.29
2017-09-13T07:49:26.054Z,988.30
2017-09-13T07:50:20.994Z,988.18
2017-09-13T07:51:15.094Z,988.08
2017-09-13T07:52:09.629Z,988.13
2017-09-13T07:53:04.100Z,987.95
2017-09-13T07:53:58.131Z,988.10
2017-09-13T07:54:53.598Z,988.26
2017-09-13T07:55:47.244Z,988.17
2017-09-13T07:56:41.272Z,988.14
2017-09-13T07:57:36.470Z,988.16
2017-09-13T07:58:36.355Z,988.12
2017-09-13T07:59:30.398Z,988.05
2017-09-13T08:00:30.461Z,988.07
2017-09-13T08:01:19.720Z,988.16
2017-09-13T08:02:14.543Z,988.15
2017-09-13T08:03:08.628Z,988.12
2017-09-13T08:04:08.596Z,988.14
2017-09-13T08:04:57.660Z,988.17
2017-09-13T08:05:52.729Z,988.20
2017-09-13T08:06:42.093Z,987.99
2017-09-13T08:07:41.786Z,988.11
2017-09-13T08:08:36.853Z,988.39
2017-09-13T08:09:32.057Z,988.55
2017-09-13T08:10:25.929Z,988.43
2017-09-13T08:11:20.050Z,988.42
2017-09-13T08:12:15.614Z,988.35
2017-09-13T08:13:09.045Z,988.46
2017-09-13T08:14:09.165Z,988.74
2017-09-13T08:15:09.175Z,988.29
2017-09-13T08:16:04.165Z,988.18
2017-09-13T08:16:58.210Z,987.91
2017-09-13T08:17:52.613Z,988.24
2017-09-13T08:18:47.300Z,988.34
2017-09-13T08:19:41.422Z,988.35
2017-09-13T08:20:41.450Z,988.37
2017-09-13T08:21:35.361Z,988.39
2017-09-13T08:22:35.409Z,988.44
2017-09-13T08:23:30.528Z,988.46
2017-09-13T08:24:24.544Z,988.59
2017-09-13T08:25:18.557Z,988.60
2017-09-13T08:26:18.601Z,988.47
2017-09-13T08:27:18.657Z,988.52
2017-09-13T08:28:12.694Z,988.40
2017-09-13T08:29:06.797Z,988.50
2017-09-13T08:30:01.112Z,988.68
2017-09-13T08:30:54.876Z,988.49
2017-09-13T08:31:43.936Z,988.55
2017-09-13T08:32:44.904Z,988.46
2017-09-13T08:33:38.960Z,988.34
2017-09-13T08:34:32.971Z,988.55
2017-09-13T08:35:33.364Z,988.73
2017-09-13T08:36:27.032Z,988.64
2017-09-13T08:37:27.084Z,988.62
2017-09-13T08:38:22.156Z,988.66
2017-09-13T08:39:17.244Z,988.17
2017-09-13T08:40:11.930Z,988.68
2017-09-13T08:41:05.711Z,988.74
2017-09-13T08:42:05.518Z,988.56
2017-09-13T08:43:05.589Z,988.50
2017-09-13T08:44:05.636Z,988.91
2017-09-13T08:44:54.767Z,988.75
2017-09-13T08:45:50.201Z,988.38
2017-09-13T08:46:38.901Z,988.81
2017-09-13T08:47:32.995Z,988.52
2017-09-13T08:48:26.954Z,988.70
2017-09-13T08:49:21.043Z,988.54
2017-09-13T08:50:21.087Z,988.41
2017-09-13T08:51:15.351Z,988.34
2017-09-13T08:52:15.166Z,988.29
2017-09-13T08:53:03.130Z,988.42
2017-09-13T08:54:04.197Z,988.24
2017-09-13T08:55:05.340Z,988.60
2017-09-13T08:55:59.317Z,988.44
2017-09-13T08:56:53.752Z,988.43
2017-09-13T08:57:53.385Z,988.51
2017-09-13T08:58:42.307Z,988.45
2017-09-13T08:59:36.155Z,988.38
2017-09-13T09:00:30.078Z,988.66
2017-09-13T09:01:24.460Z,988.65
2017-09-13T09:02:19.626Z,988.55
2017-09-13T09:03:13.672Z,988.65
2017-09-13T09:04:07.709Z,988.69
2017-09-13T09:05:07.373Z,988.63
2017-09-13T09:06:01.540Z,988.41
2017-09-13T09:07:02.404Z,988.42
2017-09-13T09:07:57.902Z,988.74
2017-09-13T09:08:51.603Z,988.83
2017-09-13T09:09:45.547Z,988.77
2017-09-13T09:10:45.661Z,988.90
2017-09-13T09:11:45.646Z,988.88
2017-09-13T09:12:40.707Z,989.16
2017-09-13T09:13:30.210Z,989.26
2017-09-13T09:14:24.848Z,989.04
2017-09-13T09:15:18.893Z,989.33
2017-09-13T09:16:19.874Z,989.43
2017-09-13T09:17:14.313Z,989.50
2017-09-13T09:18:07.960Z,989.27
2017-09-13T09:19:02.410Z,989.23
2017-09-13T09:19:56.045Z,989.25
2017-09-13T09:20:51.139Z,989.31
2017-09-13T09:21:40.186Z,989.40
2017-09-13T09:22:28.190Z,989.37
2017-09-13T09:23:22.300Z,989.48
2017-09-13T09:24:10.575Z,989.53
2017-09-13T09:25:04.281Z,989.61
2017-09-13T09:25:58.366Z,989.61
2017-09-13T09:26:47.428Z,989.37
2017-09-13T09:27:36.413Z,989.56
2017-09-13T09:28:30.488Z,989.83
2017-09-13T09:29:30.860Z,989.71
2017-09-13T09:30:25.618Z,989.81
2017-09-13T09:31:19.762Z,989.82
2017-09-13T09:32:14.287Z,989.85
2017-09-13T09:33:01.778Z,989.62
2017-09-13T09:33:55.941Z,989.72
2017-09-13T09:34:50.053Z,989.86
2017-09-13T09:35:38.952Z,989.95
2017-09-13T09:36:32.797Z,989.91
2017-09-13T09:37:21.929Z,989.88
2017-09-13T09:38:16.081Z,989.89
2017-09-13T09:39:11.094Z,990.05
2017-09-13T09:40:05.397Z,990.08
2017-09-13T09:40:59.062Z,989.96
2017-09-13T09:41:59.208Z,990.05
2017-09-13T09:42:53.140Z,990.14
2017-09-13T09:43:47.215Z,990.15
2017-09-13T09:44:42.291Z,990.13
2017-09-13T09:45:30.663Z,990.11
2017-09-13T09:46:25.330Z,989.82
2017-09-13T09:47:20.389Z,989.71
2017-09-13T09:48:16.000Z,989.83
2017-09-13T09:49:16.825Z,989.78
2017-09-13T09:50:05.420Z,989.81
2017-09-13T09:50:59.897Z,989.65
2017-09-13T09:51:53.633Z,989.78
2017-09-13T09:52:42.821Z,989.80
2017-09-13T09:53:31.794Z,989.76
2017-09-13T09:54:19.815Z,989.81
2017-09-13T09:55:14.955Z,989.91
2017-09-13T09:56:04.132Z,989.93
2017-09-13T09:56:59.171Z,990.01
2017-09-13T09:57:53.121Z,990.01
2017-09-13T09:58:41.947Z,989.98
2017-09-13T09:59:37.017Z,990.16
2017-09-13T10:00:37.426Z,990.23
2017-09-13T10:01:31.422Z,990.04
2017-09-13T10:02:25.337Z,990.07
2017-09-13T10:03:14.297Z,990.24
2017-09-13T10:04:08.443Z,990.52
2017-09-13T10:05:03.567Z,990.46
2017-09-13T10:05:51.591Z,990.23
2017-09-13T10:06:40.904Z,989.95
2017-09-13T10:07:35.651Z,989.86
2017-09-13T10:08:29.673Z,989.90
2017-09-13T10:09:24.813Z,989.98
2017-09-13T10:10:24.588Z,989.96
2017-09-13T10:11:18.589Z,989.74
2017-09-13T10:12:14.064Z,989.96
2017-09-13T10:13:08.941Z,989.98
2017-09-13T10:14:09.991Z,989.96
2017-09-13T10:14:59.015Z,989.87
2017-09-13T10:15:53.070Z,990.07
2017-09-13T10:16:53.275Z,990.20
2017-09-13T10:17:41.296Z,989.86
2017-09-13T10:18:34.939Z,989.96
2017-09-13T10:19:34.883Z,989.90
2017-09-13T10:20:35.212Z,989.82
2017-09-13T10:21:29.039Z,990.13
2017-09-13T10:22:23.036Z,990.23
2017-09-13T10:23:18.562Z,990.09
2017-09-13T10:24:12.259Z,990.14
2017-09-13T10:25:06.179Z,989.69
2017-09-13T10:26:00.302Z,989.84
2017-09-13T10:26:55.452Z,989.97
2017-09-13T10:27:55.709Z,989.89
2017-09-13T10:28:50.816Z,989.77
2017-09-13T10:29:44.768Z,989.83
2017-09-13T10:30:39.511Z,989.72
2017-09-13T10:31:27.983Z,989.79
2017-09-13T10:32:21.985Z,989.75
2017-09-13T10:33:21.650Z,989.70
2017-09-13T10:34:16.192Z,989.80
2017-09-13T10:35:10.177Z,989.81
2017-09-13T10:35:59.230Z,989.99
2017-09-13T10:36:54.179Z,989.66
2017-09-13T10:37:48.329Z,989.63
2017-09-13T10:38:42.300Z,989.67
2017-09-13T10:39:36.379Z,989.86
2017-09-13T10:40:30.320Z,990.41
2017-09-13T10:41:24.488Z,990.14
2017-09-13T10:42:19.378Z,990.12
2017-09-13T10:43:08.574Z,990.02
2017-09-13T10:44:08.573Z,989.89
2017-09-13T10:44:56.718Z,989.99
2017-09-13T10:45:50.697Z,990.07
2017-09-13T10:46:50.853Z,990.00
2017-09-13T10:47:39.897Z,990.17
2017-09-13T10:48:33.890Z,990.15
2017-09-13T10:49:22.990Z,989.77
2017-09-13T10:50:17.017Z,990.21
2017-09-13T10:51:11.133Z,990.25
2017-09-13T10:52:06.088Z,990.07
2017-09-13T10:52:55.241Z,990.22
2017-09-13T10:53:44.194Z,990.18
2017-09-13T10:54:38.343Z,990.36
2017-09-13T10:55:38.414Z,990.15
2017-09-13T10:56:32.382Z,990.46
2017-09-13T10:57:27.381Z,990.28
2017-09-13T10:58:27.535Z,990.33
2017-09-13T10:59:16.591Z,990.16
2017-09-13T11:00:16.610Z,990.68
2017-09-13T11:01:10.695Z,990.55
2017-09-13T11:02:04.666Z,990.22
2017-09-13T11:02:53.815Z,990.30
2017-09-13T11:03:47.793Z,990.31
2017-09-13T11:04:47.924Z,990.39
2017-09-13T11:05:41.958Z,990.47
2017-09-13T11:06:36.366Z,990.27
2017-09-13T11:07:25.044Z,990.79
2017-09-13T11:08:20.039Z,990.41
2017-09-13T11:09:08.225Z,990.66
2017-09-13T11:10:02.238Z,990.65
2017-09-13T11:11:02.254Z,990.56
2017-09-13T11:11:57.594Z,990.54
2017-09-13T11:12:51.486Z,990.36
2017-09-13T11:13:45.438Z,990.52
2017-09-13T11:14:40.476Z,990.50
2017-09-13T11:15:40.529Z,990.49
2017-09-13T11:16:34.598Z,990.70
2017-09-13T11:17:28.646Z,990.71
2017-09-13T11:18:16.729Z,990.85
2017-09-13T11:19:10.886Z,990.81
2017-09-13T11:19:59.734Z,990.76
2017-09-13T11:20:53.947Z,990.76
2017-09-13T11:21:53.921Z,990.79
2017-09-13T11:22:42.066Z,990.44
2017-09-13T11:23:31.154Z,990.77
2017-09-13T11:24:20.058Z,990.83
2017-09-13T11:25:15.142Z,991.27
2017-09-13T11:26:10.257Z,990.78